sensor_id;sensor_type;location;lat;lon;timestamp;temperature;humidity
33580;DHT22;19909;43.644;-79.438;2022-08-14T00:00:49;21.70;50.40
33580;DHT22;19909;43.644;-79.438;2022-08-14T00:03:22;21.70;50.40
33580;DHT22;19909;43.644;-79.438;2022-08-14T00:05:48;21.80;50.50
33580;DHT22;19909;43.644;-79.438;2022-08-14T00:08:14;21.70;50.40
33580;DHT22;19909;43.644;-79.438;2022-08-14T00:10:41;21.70;50.40
33580;DHT22;19909;43.644;-79.438;2022-08-14T00:13:08;21.80;50.40
33580;DHT22;19909;43.644;-79.438;2022-08-14T00:15:38;21.80;50.40
33580;DHT22;19909;43.644;-79.438;2022-08-14T00:18:05;21.70;50.40
33580;DHT22;19909;43.644;-79.438;2022-08-14T00:20:35;21.70;50.40
33580;DHT22;19909;43.644;-79.438;2022-08-14T00:23:03;21.70;50.40
33580;DHT22;19909;43.644;-79.438;2022-08-14T00:25:30;21.70;50.40
33580;DHT22;19909;43.644;-79.438;2022-08-14T00:27:56;21.70;50.40
33580;DHT22;19909;43.644;-79.438;2022-08-14T00:30:23;21.70;50.40
33580;DHT22;19909;43.644;-79.438;2022-08-14T00:32:49;21.70;50.30
33580;DHT22;19909;43.644;-79.438;2022-08-14T00:35:16;21.70;50.40
33580;DHT22;19909;43.644;-79.438;2022-08-14T00:37:44;21.70;50.30
33580;DHT22;19909;43.644;-79.438;2022-08-14T00:40:14;21.70;50.40
33580;DHT22;19909;43.644;-79.438;2022-08-14T00:42:41;21.70;50.40
33580;DHT22;19909;43.644;-79.438;2022-08-14T00:45:10;21.70;50.40
33580;DHT22;19909;43.644;-79.438;2022-08-14T00:47:38;21.70;50.40
33580;DHT22;19909;43.644;-79.438;2022-08-14T00:50:07;21.70;50.30
33580;DHT22;19909;43.644;-79.438;2022-08-14T00:52:34;21.70;50.40
33580;DHT22;19909;43.644;-79.438;2022-08-14T00:55:01;21.70;50.50
33580;DHT22;19909;43.644;-79.438;2022-08-14T00:57:31;21.70;50.50
33580;DHT22;19909;43.644;-79.438;2022-08-14T00:59:57;21.70;50.60
33580;DHT22;19909;43.644;-79.438;2022-08-14T01:02:26;21.70;50.60
33580;DHT22;19909;43.644;-79.438;2022-08-14T01:04:56;21.80;50.60
33580;DHT22;19909;43.644;-79.438;2022-08-14T01:07:26;21.80;50.60
33580;DHT22;19909;43.644;-79.438;2022-08-14T01:09:59;21.80;50.70
33580;DHT22;19909;43.644;-79.438;2022-08-14T01:12:30;21.90;50.70
33580;DHT22;19909;43.644;-79.438;2022-08-14T01:14:59;21.80;50.70
33580;DHT22;19909;43.644;-79.438;2022-08-14T01:17:29;21.90;50.80
33580;DHT22;19909;43.644;-79.438;2022-08-14T01:20:14;21.90;50.80
33580;DHT22;19909;43.644;-79.438;2022-08-14T01:22:59;21.90;50.90
33580;DHT22;19909;43.644;-79.438;2022-08-14T01:25:25;21.90;51.20
33580;DHT22;19909;43.644;-79.438;2022-08-14T01:27:51;21.90;51.50
33580;DHT22;19909;43.644;-79.438;2022-08-14T01:30:20;21.90;51.70
33580;DHT22;19909;43.644;-79.438;2022-08-14T01:32:48;21.90;51.40
33580;DHT22;19909;43.644;-79.438;2022-08-14T01:35:16;21.90;51.30
33580;DHT22;19909;43.644;-79.438;2022-08-14T01:37:44;21.90;51.10
33580;DHT22;19909;43.644;-79.438;2022-08-14T01:40:11;21.80;51.00
33580;DHT22;19909;43.644;-79.438;2022-08-14T01:42:37;21.90;50.90
33580;DHT22;19909;43.644;-79.438;2022-08-14T01:45:07;21.90;51.00
33580;DHT22;19909;43.644;-79.438;2022-08-14T01:47:38;21.80;50.80
33580;DHT22;19909;43.644;-79.438;2022-08-14T01:50:07;21.90;50.90
33580;DHT22;19909;43.644;-79.438;2022-08-14T01:52:34;21.80;50.80
33580;DHT22;19909;43.644;-79.438;2022-08-14T01:55:04;21.90;50.80
33580;DHT22;19909;43.644;-79.438;2022-08-14T01:57:34;21.90;50.80
33580;DHT22;19909;43.644;-79.438;2022-08-14T02:00:07;21.80;50.70
33580;DHT22;19909;43.644;-79.438;2022-08-14T02:02:37;21.80;50.70
33580;DHT22;19909;43.644;-79.438;2022-08-14T02:05:04;21.80;50.80
33580;DHT22;19909;43.644;-79.438;2022-08-14T02:07:30;21.80;50.70
33580;DHT22;19909;43.644;-79.438;2022-08-14T02:09:57;21.90;50.80
33580;DHT22;19909;43.644;-79.438;2022-08-14T02:12:24;21.80;50.90
33580;DHT22;19909;43.644;-79.438;2022-08-14T02:14:50;21.90;51.00
33580;DHT22;19909;43.644;-79.438;2022-08-14T02:17:16;21.90;51.50
33580;DHT22;19909;43.644;-79.438;2022-08-14T02:19:49;21.90;51.00
33580;DHT22;19909;43.644;-79.438;2022-08-14T02:22:15;21.90;51.00
33580;DHT22;19909;43.644;-79.438;2022-08-14T02:24:44;22.00;51.10
33580;DHT22;19909;43.644;-79.438;2022-08-14T02:27:10;22.00;51.10
33580;DHT22;19909;43.644;-79.438;2022-08-14T02:29:36;22.00;51.10
33580;DHT22;19909;43.644;-79.438;2022-08-14T02:32:03;22.00;51.10
33580;DHT22;19909;43.644;-79.438;2022-08-14T02:34:34;22.00;51.10
33580;DHT22;19909;43.644;-79.438;2022-08-14T02:37:06;22.00;51.10
33580;DHT22;19909;43.644;-79.438;2022-08-14T02:39:35;22.00;51.20
33580;DHT22;19909;43.644;-79.438;2022-08-14T02:42:02;22.10;51.20
33580;DHT22;19909;43.644;-79.438;2022-08-14T02:44:30;22.10;51.60
33580;DHT22;19909;43.644;-79.438;2022-08-14T02:46:56;22.00;51.80
33580;DHT22;19909;43.644;-79.438;2022-08-14T02:49:23;22.00;51.90
33580;DHT22;19909;43.644;-79.438;2022-08-14T02:51:57;22.10;51.90
33580;DHT22;19909;43.644;-79.438;2022-08-14T02:54:24;22.10;51.90
33580;DHT22;19909;43.644;-79.438;2022-08-14T02:56:53;22.10;51.80
33580;DHT22;19909;43.644;-79.438;2022-08-14T02:59:20;22.10;52.00
33580;DHT22;19909;43.644;-79.438;2022-08-14T03:01:48;22.10;52.10
33580;DHT22;19909;43.644;-79.438;2022-08-14T03:04:15;22.10;52.20
33580;DHT22;19909;43.644;-79.438;2022-08-14T03:06:42;22.10;52.00
33580;DHT22;19909;43.644;-79.438;2022-08-14T03:09:09;22.20;52.00
33580;DHT22;19909;43.644;-79.438;2022-08-14T03:11:36;22.20;52.00
33580;DHT22;19909;43.644;-79.438;2022-08-14T03:14:03;22.20;51.70
33580;DHT22;19909;43.644;-79.438;2022-08-14T03:16:30;22.20;51.50
33580;DHT22;19909;43.644;-79.438;2022-08-14T03:19:01;22.20;51.50
33580;DHT22;19909;43.644;-79.438;2022-08-14T03:21:28;22.10;51.30
33580;DHT22;19909;43.644;-79.438;2022-08-14T03:23:56;22.10;51.30
33580;DHT22;19909;43.644;-79.438;2022-08-14T03:26:35;22.10;51.20
33580;DHT22;19909;43.644;-79.438;2022-08-14T03:29:03;22.10;51.10
33580;DHT22;19909;43.644;-79.438;2022-08-14T03:31:29;22.00;51.10
33580;DHT22;19909;43.644;-79.438;2022-08-14T03:33:56;22.00;51.10
33580;DHT22;19909;43.644;-79.438;2022-08-14T03:36:22;22.00;51.00
33580;DHT22;19909;43.644;-79.438;2022-08-14T03:38:50;22.10;51.10
33580;DHT22;19909;43.644;-79.438;2022-08-14T03:41:24;22.00;51.00
33580;DHT22;19909;43.644;-79.438;2022-08-14T03:43:55;22.10;50.90
33580;DHT22;19909;43.644;-79.438;2022-08-14T03:46:24;22.00;50.80
33580;DHT22;19909;43.644;-79.438;2022-08-14T03:48:53;22.00;50.80
33580;DHT22;19909;43.644;-79.438;2022-08-14T03:51:21;22.00;50.90
33580;DHT22;19909;43.644;-79.438;2022-08-14T03:53:49;22.00;50.80
33580;DHT22;19909;43.644;-79.438;2022-08-14T03:56:16;22.00;50.80
33580;DHT22;19909;43.644;-79.438;2022-08-14T03:58:45;22.00;50.80
33580;DHT22;19909;43.644;-79.438;2022-08-14T04:01:14;22.00;50.70
33580;DHT22;19909;43.644;-79.438;2022-08-14T04:03:40;22.00;50.70
33580;DHT22;19909;43.644;-79.438;2022-08-14T04:06:06;22.00;50.80
33580;DHT22;19909;43.644;-79.438;2022-08-14T04:08:37;22.00;50.70
33580;DHT22;19909;43.644;-79.438;2022-08-14T04:11:05;21.90;50.60
33580;DHT22;19909;43.644;-79.438;2022-08-14T04:13:33;22.00;50.70
33580;DHT22;19909;43.644;-79.438;2022-08-14T04:16:01;21.90;50.60
33580;DHT22;19909;43.644;-79.438;2022-08-14T04:18:28;21.90;50.60
33580;DHT22;19909;43.644;-79.438;2022-08-14T04:20:55;21.90;50.60
33580;DHT22;19909;43.644;-79.438;2022-08-14T04:23:26;21.90;50.60
33580;DHT22;19909;43.644;-79.438;2022-08-14T04:25:53;21.90;50.50
33580;DHT22;19909;43.644;-79.438;2022-08-14T04:28:20;21.90;50.50
33580;DHT22;19909;43.644;-79.438;2022-08-14T04:30:46;21.90;50.50
33580;DHT22;19909;43.644;-79.438;2022-08-14T04:33:13;21.90;50.50
33580;DHT22;19909;43.644;-79.438;2022-08-14T04:35:41;21.90;51.10
33580;DHT22;19909;43.644;-79.438;2022-08-14T04:38:08;21.90;50.50
33580;DHT22;19909;43.644;-79.438;2022-08-14T04:40:54;21.90;51.00
33580;DHT22;19909;43.644;-79.438;2022-08-14T04:43:39;21.90;50.40
33580;DHT22;19909;43.644;-79.438;2022-08-14T04:46:08;21.90;50.40
33580;DHT22;19909;43.644;-79.438;2022-08-14T04:48:35;21.90;50.50
33580;DHT22;19909;43.644;-79.438;2022-08-14T04:51:03;21.90;50.40
33580;DHT22;19909;43.644;-79.438;2022-08-14T04:53:30;21.80;50.40
33580;DHT22;19909;43.644;-79.438;2022-08-14T04:55:58;21.90;50.50
33580;DHT22;19909;43.644;-79.438;2022-08-14T04:58:28;21.80;50.50
33580;DHT22;19909;43.644;-79.438;2022-08-14T05:00:56;21.90;50.40
33580;DHT22;19909;43.644;-79.438;2022-08-14T05:03:28;21.80;50.30
33580;DHT22;19909;43.644;-79.438;2022-08-14T05:05:59;21.80;50.20
33580;DHT22;19909;43.644;-79.438;2022-08-14T05:08:26;21.80;50.30
33580;DHT22;19909;43.644;-79.438;2022-08-14T05:10:54;21.80;50.30
33580;DHT22;19909;43.644;-79.438;2022-08-14T05:13:24;21.80;50.30
33580;DHT22;19909;43.644;-79.438;2022-08-14T05:15:52;21.80;50.30
33580;DHT22;19909;43.644;-79.438;2022-08-14T05:18:21;21.80;50.20
33580;DHT22;19909;43.644;-79.438;2022-08-14T05:20:54;21.80;50.20
33580;DHT22;19909;43.644;-79.438;2022-08-14T05:23:26;21.90;50.20
33580;DHT22;19909;43.644;-79.438;2022-08-14T05:25:53;21.80;50.20
33580;DHT22;19909;43.644;-79.438;2022-08-14T05:28:25;21.80;50.20
33580;DHT22;19909;43.644;-79.438;2022-08-14T05:31:03;21.80;50.20
33580;DHT22;19909;43.644;-79.438;2022-08-14T05:33:34;21.80;50.20
33580;DHT22;19909;43.644;-79.438;2022-08-14T05:36:04;21.80;50.20
33580;DHT22;19909;43.644;-79.438;2022-08-14T05:38:34;21.80;50.10
33580;DHT22;19909;43.644;-79.438;2022-08-14T05:41:18;21.80;50.20
33580;DHT22;19909;43.644;-79.438;2022-08-14T05:43:46;21.80;50.10
33580;DHT22;19909;43.644;-79.438;2022-08-14T05:46:15;21.80;50.10
33580;DHT22;19909;43.644;-79.438;2022-08-14T05:48:54;21.80;50.10
33580;DHT22;19909;43.644;-79.438;2022-08-14T05:51:22;21.80;50.10
33580;DHT22;19909;43.644;-79.438;2022-08-14T05:53:48;21.80;50.10
33580;DHT22;19909;43.644;-79.438;2022-08-14T05:56:15;21.80;50.20
33580;DHT22;19909;43.644;-79.438;2022-08-14T05:58:41;21.80;50.10
33580;DHT22;19909;43.644;-79.438;2022-08-14T06:01:07;21.80;50.10
33580;DHT22;19909;43.644;-79.438;2022-08-14T06:03:34;21.80;50.10
33580;DHT22;19909;43.644;-79.438;2022-08-14T06:06:01;21.80;50.00
33580;DHT22;19909;43.644;-79.438;2022-08-14T06:08:30;21.80;50.10
33580;DHT22;19909;43.644;-79.438;2022-08-14T06:10:59;21.80;50.10
33580;DHT22;19909;43.644;-79.438;2022-08-14T06:13:36;21.80;50.00
33580;DHT22;19909;43.644;-79.438;2022-08-14T06:16:03;21.80;50.20
33580;DHT22;19909;43.644;-79.438;2022-08-14T06:18:29;21.80;50.20
33580;DHT22;19909;43.644;-79.438;2022-08-14T06:20:56;21.80;50.30
33580;DHT22;19909;43.644;-79.438;2022-08-14T06:23:22;21.80;50.40
33580;DHT22;19909;43.644;-79.438;2022-08-14T06:25:48;21.80;50.40
33580;DHT22;19909;43.644;-79.438;2022-08-14T06:28:16;21.80;50.40
33580;DHT22;19909;43.644;-79.438;2022-08-14T06:30:43;21.90;50.40
33580;DHT22;19909;43.644;-79.438;2022-08-14T06:33:09;21.90;50.50
33580;DHT22;19909;43.644;-79.438;2022-08-14T06:35:35;21.90;50.50
33580;DHT22;19909;43.644;-79.438;2022-08-14T06:38:01;22.00;50.70
33580;DHT22;19909;43.644;-79.438;2022-08-14T06:40:33;22.00;50.60
33580;DHT22;19909;43.644;-79.438;2022-08-14T06:43:04;22.00;50.70
33580;DHT22;19909;43.644;-79.438;2022-08-14T06:45:33;22.00;51.10
33580;DHT22;19909;43.644;-79.438;2022-08-14T06:48:00;22.00;51.20
33580;DHT22;19909;43.644;-79.438;2022-08-14T06:50:27;22.00;51.30
33580;DHT22;19909;43.644;-79.438;2022-08-14T06:52:54;22.00;51.30
33580;DHT22;19909;43.644;-79.438;2022-08-14T06:55:21;22.00;51.20
33580;DHT22;19909;43.644;-79.438;2022-08-14T06:57:49;22.00;51.30
33580;DHT22;19909;43.644;-79.438;2022-08-14T07:00:23;22.10;51.50
33580;DHT22;19909;43.644;-79.438;2022-08-14T07:02:50;22.00;51.60
33580;DHT22;19909;43.644;-79.438;2022-08-14T07:05:35;22.00;51.50
33580;DHT22;19909;43.644;-79.438;2022-08-14T07:08:18;22.10;51.50
33580;DHT22;19909;43.644;-79.438;2022-08-14T07:10:48;22.10;51.50
33580;DHT22;19909;43.644;-79.438;2022-08-14T07:13:15;22.10;51.50
33580;DHT22;19909;43.644;-79.438;2022-08-14T07:15:44;22.10;51.60
33580;DHT22;19909;43.644;-79.438;2022-08-14T07:18:12;22.10;51.40
33580;DHT22;19909;43.644;-79.438;2022-08-14T07:20:40;22.10;51.30
33580;DHT22;19909;43.644;-79.438;2022-08-14T07:23:08;22.10;51.00
33580;DHT22;19909;43.644;-79.438;2022-08-14T07:25:35;22.00;50.90
33580;DHT22;19909;43.644;-79.438;2022-08-14T07:28:11;22.00;50.90
33580;DHT22;19909;43.644;-79.438;2022-08-14T07:30:39;22.00;50.80
33580;DHT22;19909;43.644;-79.438;2022-08-14T07:33:06;22.00;50.80
33580;DHT22;19909;43.644;-79.438;2022-08-14T07:35:34;21.90;50.70
33580;DHT22;19909;43.644;-79.438;2022-08-14T07:38:00;21.90;50.70
33580;DHT22;19909;43.644;-79.438;2022-08-14T07:40:27;21.90;50.70
33580;DHT22;19909;43.644;-79.438;2022-08-14T07:42:53;21.90;50.60
33580;DHT22;19909;43.644;-79.438;2022-08-14T07:45:19;21.90;50.60
33580;DHT22;19909;43.644;-79.438;2022-08-14T07:47:45;21.90;50.50
33580;DHT22;19909;43.644;-79.438;2022-08-14T07:50:14;22.00;50.60
33580;DHT22;19909;43.644;-79.438;2022-08-14T07:52:42;21.90;50.40
33580;DHT22;19909;43.644;-79.438;2022-08-14T07:55:10;21.90;50.30
33580;DHT22;19909;43.644;-79.438;2022-08-14T07:57:44;22.00;50.50
33580;DHT22;19909;43.644;-79.438;2022-08-14T08:00:17;21.90;50.50
33580;DHT22;19909;43.644;-79.438;2022-08-14T08:02:46;22.00;50.60
33580;DHT22;19909;43.644;-79.438;2022-08-14T08:05:13;22.00;50.60
33580;DHT22;19909;43.644;-79.438;2022-08-14T08:07:41;22.00;50.70
33580;DHT22;19909;43.644;-79.438;2022-08-14T08:10:17;22.00;50.70
33580;DHT22;19909;43.644;-79.438;2022-08-14T08:13:26;22.00;50.70
33580;DHT22;19909;43.644;-79.438;2022-08-14T08:15:54;22.10;50.80
33580;DHT22;19909;43.644;-79.438;2022-08-14T08:18:25;22.10;50.80
33580;DHT22;19909;43.644;-79.438;2022-08-14T08:20:54;22.10;50.80
33580;DHT22;19909;43.644;-79.438;2022-08-14T08:23:22;22.10;50.80
33580;DHT22;19909;43.644;-79.438;2022-08-14T08:25:50;22.10;50.90
33580;DHT22;19909;43.644;-79.438;2022-08-14T08:28:21;22.10;50.80
33580;DHT22;19909;43.644;-79.438;2022-08-14T08:30:53;22.10;51.20
33580;DHT22;19909;43.644;-79.438;2022-08-14T08:33:23;22.10;51.30
33580;DHT22;19909;43.644;-79.438;2022-08-14T08:35:51;22.10;51.40
33580;DHT22;19909;43.644;-79.438;2022-08-14T08:38:19;22.10;51.30
33580;DHT22;19909;43.644;-79.438;2022-08-14T08:40:49;22.20;51.30
33580;DHT22;19909;43.644;-79.438;2022-08-14T08:45:55;22.20;51.60
33580;DHT22;19909;43.644;-79.438;2022-08-14T08:48:23;22.20;51.70
33580;DHT22;19909;43.644;-79.438;2022-08-14T08:50:55;22.20;51.70
33580;DHT22;19909;43.644;-79.438;2022-08-14T08:53:21;22.20;51.60
33580;DHT22;19909;43.644;-79.438;2022-08-14T08:55:47;22.20;51.60
33580;DHT22;19909;43.644;-79.438;2022-08-14T08:58:17;22.20;51.70
33580;DHT22;19909;43.644;-79.438;2022-08-14T09:00:49;22.20;52.30
33580;DHT22;19909;43.644;-79.438;2022-08-14T09:03:19;22.20;51.70
33580;DHT22;19909;43.644;-79.438;2022-08-14T09:05:52;22.20;51.70
33580;DHT22;19909;43.644;-79.438;2022-08-14T09:10:46;22.20;51.60
33580;DHT22;19909;43.644;-79.438;2022-08-14T09:13:13;22.20;51.70
33580;DHT22;19909;43.644;-79.438;2022-08-14T09:15:42;22.30;51.80
33580;DHT22;19909;43.644;-79.438;2022-08-14T09:18:10;22.30;51.80
33580;DHT22;19909;43.644;-79.438;2022-08-14T09:20:39;22.30;51.60
33580;DHT22;19909;43.644;-79.438;2022-08-14T09:23:09;22.30;51.20
33580;DHT22;19909;43.644;-79.438;2022-08-14T09:25:37;22.20;51.10
33580;DHT22;19909;43.644;-79.438;2022-08-14T09:28:05;22.20;51.00
33580;DHT22;19909;43.644;-79.438;2022-08-14T09:30:34;22.10;50.80
33580;DHT22;19909;43.644;-79.438;2022-08-14T09:36:02;22.10;50.80
33580;DHT22;19909;43.644;-79.438;2022-08-14T09:44:10;22.10;50.70
33580;DHT22;19909;43.644;-79.438;2022-08-14T09:46:55;22.10;50.60
33580;DHT22;19909;43.644;-79.438;2022-08-14T09:49:36;22.10;50.60
33580;DHT22;19909;43.644;-79.438;2022-08-14T09:52:11;22.10;50.50
33580;DHT22;19909;43.644;-79.438;2022-08-14T09:54:46;22.00;50.30
33580;DHT22;19909;43.644;-79.438;2022-08-14T09:57:29;22.00;50.50
33580;DHT22;19909;43.644;-79.438;2022-08-14T10:00:10;22.10;50.60
33580;DHT22;19909;43.644;-79.438;2022-08-14T10:02:49;22.10;50.70
33580;DHT22;19909;43.644;-79.438;2022-08-14T10:05:33;22.10;50.80
33580;DHT22;19909;43.644;-79.438;2022-08-14T10:08:02;22.10;50.80
33580;DHT22;19909;43.644;-79.438;2022-08-14T10:10:34;22.10;50.80
33580;DHT22;19909;43.644;-79.438;2022-08-14T10:13:03;22.20;50.80
33580;DHT22;19909;43.644;-79.438;2022-08-14T10:15:30;22.20;50.90
33580;DHT22;19909;43.644;-79.438;2022-08-14T10:20:37;22.20;50.80
33580;DHT22;19909;43.644;-79.438;2022-08-14T10:23:10;22.20;50.90
33580;DHT22;19909;43.644;-79.438;2022-08-14T10:25:42;22.20;50.80
33580;DHT22;19909;43.644;-79.438;2022-08-14T10:28:10;22.20;51.00
33580;DHT22;19909;43.644;-79.438;2022-08-14T10:30:41;22.20;51.30
33580;DHT22;19909;43.644;-79.438;2022-08-14T10:33:08;22.20;51.50
33580;DHT22;19909;43.644;-79.438;2022-08-14T10:35:43;22.20;51.50
33580;DHT22;19909;43.644;-79.438;2022-08-14T10:38:09;22.30;51.50
33580;DHT22;19909;43.644;-79.438;2022-08-14T10:40:36;22.30;51.50
33580;DHT22;19909;43.644;-79.438;2022-08-14T10:43:14;22.30;51.50
33580;DHT22;19909;43.644;-79.438;2022-08-14T10:45:52;22.30;51.70
33580;DHT22;19909;43.644;-79.438;2022-08-14T10:48:19;22.30;51.80
33580;DHT22;19909;43.644;-79.438;2022-08-14T10:50:45;22.30;51.70
33580;DHT22;19909;43.644;-79.438;2022-08-14T10:53:28;22.30;51.70
33580;DHT22;19909;43.644;-79.438;2022-08-14T10:56:00;22.30;51.70
33580;DHT22;19909;43.644;-79.438;2022-08-14T10:58:30;22.30;51.80
33580;DHT22;19909;43.644;-79.438;2022-08-14T11:01:00;22.30;51.80
33580;DHT22;19909;43.644;-79.438;2022-08-14T11:03:40;22.30;51.80
33580;DHT22;19909;43.644;-79.438;2022-08-14T11:06:17;22.30;51.80
33580;DHT22;19909;43.644;-79.438;2022-08-14T11:08:48;22.30;51.70
33580;DHT22;19909;43.644;-79.438;2022-08-14T11:11:15;22.30;51.70
33580;DHT22;19909;43.644;-79.438;2022-08-14T11:13:43;22.40;51.80
33580;DHT22;19909;43.644;-79.438;2022-08-14T11:16:12;22.30;51.60
33580;DHT22;19909;43.644;-79.438;2022-08-14T11:18:43;22.30;51.30
33580;DHT22;19909;43.644;-79.438;2022-08-14T11:21:15;22.30;51.10
33580;DHT22;19909;43.644;-79.438;2022-08-14T11:23:44;22.30;51.00
33580;DHT22;19909;43.644;-79.438;2022-08-14T11:26:15;22.20;51.00
33580;DHT22;19909;43.644;-79.438;2022-08-14T11:28:47;22.20;50.90
33580;DHT22;19909;43.644;-79.438;2022-08-14T11:31:21;22.20;50.80
33580;DHT22;19909;43.644;-79.438;2022-08-14T11:33:52;22.20;50.90
33580;DHT22;19909;43.644;-79.438;2022-08-14T11:36:24;22.20;50.80
33580;DHT22;19909;43.644;-79.438;2022-08-14T11:38:54;22.20;50.70
33580;DHT22;19909;43.644;-79.438;2022-08-14T11:41:20;22.20;50.70
33580;DHT22;19909;43.644;-79.438;2022-08-14T11:43:48;22.10;50.60
33580;DHT22;19909;43.644;-79.438;2022-08-14T11:46:16;22.10;50.60
33580;DHT22;19909;43.644;-79.438;2022-08-14T11:48:49;22.10;50.60
33580;DHT22;19909;43.644;-79.438;2022-08-14T11:51:20;22.10;50.70
33580;DHT22;19909;43.644;-79.438;2022-08-14T11:53:58;22.10;50.90
33580;DHT22;19909;43.644;-79.438;2022-08-14T11:56:33;22.20;50.80
33580;DHT22;19909;43.644;-79.438;2022-08-14T11:59:00;22.20;50.80
33580;DHT22;19909;43.644;-79.438;2022-08-14T12:01:28;22.20;50.90
33580;DHT22;19909;43.644;-79.438;2022-08-14T12:04:11;22.20;50.80
33580;DHT22;19909;43.644;-79.438;2022-08-14T12:06:49;22.20;51.40
33580;DHT22;19909;43.644;-79.438;2022-08-14T12:09:31;22.20;50.90
33580;DHT22;19909;43.644;-79.438;2022-08-14T12:11:58;22.30;50.90
33580;DHT22;19909;43.644;-79.438;2022-08-14T12:14:25;22.30;51.00
33580;DHT22;19909;43.644;-79.438;2022-08-14T12:17:07;22.20;51.20
33580;DHT22;19909;43.644;-79.438;2022-08-14T12:22:13;22.30;51.40
33580;DHT22;19909;43.644;-79.438;2022-08-14T12:24:41;22.30;51.50
33580;DHT22;19909;43.644;-79.438;2022-08-14T12:27:09;22.30;51.40
33580;DHT22;19909;43.644;-79.438;2022-08-14T12:29:38;22.30;51.50
33580;DHT22;19909;43.644;-79.438;2022-08-14T12:32:15;22.30;51.70
33580;DHT22;19909;43.644;-79.438;2022-08-14T12:34:42;22.30;51.80
33580;DHT22;19909;43.644;-79.438;2022-08-14T12:37:08;22.30;51.80
33580;DHT22;19909;43.644;-79.438;2022-08-14T12:39:35;22.30;51.70
33580;DHT22;19909;43.644;-79.438;2022-08-14T12:42:02;22.30;51.70
33580;DHT22;19909;43.644;-79.438;2022-08-14T12:44:32;22.30;51.80
33580;DHT22;19909;43.644;-79.438;2022-08-14T12:47:12;22.30;51.90
33580;DHT22;19909;43.644;-79.438;2022-08-14T12:49:49;22.30;51.80
33580;DHT22;19909;43.644;-79.438;2022-08-14T12:52:37;22.30;51.80
33580;DHT22;19909;43.644;-79.438;2022-08-14T12:55:14;22.30;51.80
33580;DHT22;19909;43.644;-79.438;2022-08-14T12:57:43;22.40;51.80
33580;DHT22;19909;43.644;-79.438;2022-08-14T13:00:18;22.30;51.80
33580;DHT22;19909;43.644;-79.438;2022-08-14T13:02:47;22.30;51.80
33580;DHT22;19909;43.644;-79.438;2022-08-14T13:05:19;22.30;51.60
33580;DHT22;19909;43.644;-79.438;2022-08-14T13:07:48;22.30;51.30
33580;DHT22;19909;43.644;-79.438;2022-08-14T13:10:18;22.30;51.20
33580;DHT22;19909;43.644;-79.438;2022-08-14T13:12:46;22.30;51.20
33580;DHT22;19909;43.644;-79.438;2022-08-14T13:15:14;22.20;51.10
33580;DHT22;19909;43.644;-79.438;2022-08-14T13:17:50;22.20;51.10
33580;DHT22;19909;43.644;-79.438;2022-08-14T13:20:20;22.20;51.10
33580;DHT22;19909;43.644;-79.438;2022-08-14T13:22:48;22.20;51.00
33580;DHT22;19909;43.644;-79.438;2022-08-14T13:25:17;22.20;50.90
33580;DHT22;19909;43.644;-79.438;2022-08-14T13:27:50;22.20;50.90
33580;DHT22;19909;43.644;-79.438;2022-08-14T13:30:17;22.20;50.90
33580;DHT22;19909;43.644;-79.438;2022-08-14T13:32:45;22.20;50.80
33580;DHT22;19909;43.644;-79.438;2022-08-14T13:35:13;22.10;50.90
33580;DHT22;19909;43.644;-79.438;2022-08-14T13:37:44;22.10;50.80
33580;DHT22;19909;43.644;-79.438;2022-08-14T13:40:16;22.10;50.80
33580;DHT22;19909;43.644;-79.438;2022-08-14T13:42:46;22.10;50.80
33580;DHT22;19909;43.644;-79.438;2022-08-14T13:45:13;22.10;50.70
33580;DHT22;19909;43.644;-79.438;2022-08-14T13:47:40;22.10;50.70
33580;DHT22;19909;43.644;-79.438;2022-08-14T13:50:10;22.10;50.70
33580;DHT22;19909;43.644;-79.438;2022-08-14T13:52:49;22.10;50.80
33580;DHT22;19909;43.644;-79.438;2022-08-14T13:55:26;22.10;50.70
33580;DHT22;19909;43.644;-79.438;2022-08-14T13:57:56;22.10;50.60
33580;DHT22;19909;43.644;-79.438;2022-08-14T14:00:24;22.00;50.60
33580;DHT22;19909;43.644;-79.438;2022-08-14T14:02:50;22.00;50.60
33580;DHT22;19909;43.644;-79.438;2022-08-14T14:05:18;22.00;50.60
33580;DHT22;19909;43.644;-79.438;2022-08-14T14:07:48;22.00;50.50
33580;DHT22;19909;43.644;-79.438;2022-08-14T14:10:16;22.00;50.60
33580;DHT22;19909;43.644;-79.438;2022-08-14T14:12:44;22.00;50.60
33580;DHT22;19909;43.644;-79.438;2022-08-14T14:15:17;22.00;50.50
33580;DHT22;19909;43.644;-79.438;2022-08-14T14:17:43;22.00;50.50
33580;DHT22;19909;43.644;-79.438;2022-08-14T14:20:14;22.00;50.60
33580;DHT22;19909;43.644;-79.438;2022-08-14T14:22:41;22.00;50.60
33580;DHT22;19909;43.644;-79.438;2022-08-14T14:25:12;22.00;50.60
33580;DHT22;19909;43.644;-79.438;2022-08-14T14:27:43;22.00;50.90
33580;DHT22;19909;43.644;-79.438;2022-08-14T14:30:11;21.90;50.60
33580;DHT22;19909;43.644;-79.438;2022-08-14T14:32:39;21.90;50.60
33580;DHT22;19909;43.644;-79.438;2022-08-14T14:35:13;21.90;50.60
33580;DHT22;19909;43.644;-79.438;2022-08-14T14:37:42;22.00;50.60
33580;DHT22;19909;43.644;-79.438;2022-08-14T14:40:10;21.90;50.40
33580;DHT22;19909;43.644;-79.438;2022-08-14T14:42:48;22.00;50.40
33580;DHT22;19909;43.644;-79.438;2022-08-14T14:45:17;22.00;50.60
33580;DHT22;19909;43.644;-79.438;2022-08-14T14:47:51;21.90;50.50
33580;DHT22;19909;43.644;-79.438;2022-08-14T14:50:18;22.00;50.60
33580;DHT22;19909;43.644;-79.438;2022-08-14T14:52:47;22.00;50.70
33580;DHT22;19909;43.644;-79.438;2022-08-14T14:55:15;22.00;50.70
33580;DHT22;19909;43.644;-79.438;2022-08-14T14:57:45;22.00;50.80
33580;DHT22;19909;43.644;-79.438;2022-08-14T15:00:17;22.10;50.90
33580;DHT22;19909;43.644;-79.438;2022-08-14T15:02:45;22.10;50.90
33580;DHT22;19909;43.644;-79.438;2022-08-14T15:05:14;22.10;50.90
33580;DHT22;19909;43.644;-79.438;2022-08-14T15:07:41;22.10;50.90
33580;DHT22;19909;43.644;-79.438;2022-08-14T15:10:11;22.10;50.90
33580;DHT22;19909;43.644;-79.438;2022-08-14T15:12:37;22.10;50.90
33580;DHT22;19909;43.644;-79.438;2022-08-14T15:15:04;22.20;51.20
33580;DHT22;19909;43.644;-79.438;2022-08-14T15:17:31;22.20;51.40
33580;DHT22;19909;43.644;-79.438;2022-08-14T15:20:07;22.20;51.40
33580;DHT22;19909;43.644;-79.438;2022-08-14T15:22:36;22.20;51.40
33580;DHT22;19909;43.644;-79.438;2022-08-14T15:25:04;22.20;51.50
33580;DHT22;19909;43.644;-79.438;2022-08-14T15:27:31;22.20;51.60
33580;DHT22;19909;43.644;-79.438;2022-08-14T15:29:58;22.20;51.60
33580;DHT22;19909;43.644;-79.438;2022-08-14T15:32:24;22.20;51.60
33580;DHT22;19909;43.644;-79.438;2022-08-14T15:34:51;22.20;51.60
33580;DHT22;19909;43.644;-79.438;2022-08-14T15:37:18;22.20;51.60